Dalhart Municipal Airport
KDHT : now visible

Airfield :











YOU CAN JOIN US ON...

 
LOGIN :

Register | Disclaimer

   EN    FR    IT 

 









Legend :    VFR   Marginal VFR   IFR   Intensive IFR   Very Intensive IFR
Visi :
Ceiling :
>= 8 km
>= 3000ft
5 to 8 km
1000 to 3000 ft
1500m to 5 km
500 to 1000 ft
800 to 1500m
200 to 500 ft
< 800m
< 200 ft
Symbols :   Thunderstorms  Fog  Heavy snow  Heavy precipitations  Wind > 20 kt






- Airport Elevation : 3991 ft


KDHT - Dalhart Municipal

CURRENT METAR :
  • 162153Z AUTO 09008G20KT 10SM CLR 31/16 A3008 RMK AO2 SLP120 T03110161

EXPIRED METARs :
  • 162053Z AUTO 10009KT 10SM FEW050 BKN060 BKN075 30/17 A3011 RMK AO2 SLP132 T03000167 58013
  • 161953Z AUTO 03006KT 10SM CLR 30/16 A3013 RMK AO2 SLP141 T03000161

TAF KDHT
Valid from the 16 at 18:00 until the 17 at 18:00 UTC


161749Z 1618/1718 04009KT P6SM FEW250
FM170300 02013KT 6SM -SHRA OVC020
FM171000 03005KT P6SM BKN010
FM171500 03007KT P6SM SCT020
KZAB FIR / North America



MET'MAP, your aeronautical weather chart ! - Copyright ORBIFLY December 2007 - Disclaimer

ORBIFLY MET'MAP TEAM :

Programming & Development : Alexandra Zaïnal
Original concept : Baudouin d'Aumeries
Technical & hardware support : Manuel Goepfert
Assistance : Marc-Olivier Méhu




SOURCES & CREDITS :

   NOAA       Earth
Advisory